Weersoverzicht van METAR-stations binnen 150 km

EHRD - Rotterdam Airport
Afstand tot weerstation: ZO 28 km
Update: 05-04-2020 11:55
Helder
Helder
 Wind van ZO
Wind: ZO 20 km/h
Temperatuur: 15°C
Dauwpunt: 3°C
Luchtvochtigheid: 45%
Luchtdruk: 1020 hPa
Bewolking: Helder
Zicht: 10 km
2020/04/05 09:55 EHRD 050955Z AUTO 13011KT 090V170 9999 NCD 15/03 Q1020 NOSIG
EHSC - Goeree Le Sea (Platform ter hoogte van Zeeland)
Afstand tot weerstation: WZW 36 km
Update: 05-04-2020 11:25

 Wind van ZO
Wind: ZO 33 km/h
Temperatuur: 11°C
Dauwpunt: 4°C
Luchtvochtigheid: 62%
Luchtdruk: 1019 hPa
Zicht: 10 km
2020/04/05 09:25 EHSC 050925Z AUTO 14018KT 9999 ///////// 11/04 Q1019 W08/H5
 
EHAM - A'dam Schiphol
Afstand tot weerstation: ONO 51 km
Update: 05-04-2020 11:55
Helder
Helder
 Wind van ZO
Wind: ZO 28 km/h
Temperatuur: 15°C
Dauwpunt: 3°C
Luchtvochtigheid: 45%
Luchtdruk: 1020 hPa
Overzicht: Helder
Zicht: Meer dan 10 km
2020/04/05 09:55 EHAM 050955Z 14015KT 110V170 CAVOK 15/03 Q1020 NOSIG
EHSA - Euro Platform (Ter hoogte van Zeeland)
Afstand tot weerstation: W 58 km
Update: 05-04-2020 11:25

 Wind van OZO
Wind: OZO 33 km/h
Temperatuur: 9°C
Gevoelstemperatuur: 5°C
Dauwpunt: 5°C
Luchtvochtigheid: 76%
Luchtdruk: 1019 hPa
Zicht: 10 km
2020/04/05 09:25 EHSA 050925Z AUTO 11018KT 9999 ///////// 09/05 Q1019 W06/H7
 
EHPG - P11-B Sea (Platform ter hoogte van Zuid Holland)
Afstand tot weerstation: NW 60 km
Update: 05-04-2020 11:25
Helder
Helder
 Wind van OZO
Wind: OZO 37 km/h
Temperatuur: 9°C
Gevoelstemperatuur: 4°C
Dauwpunt: 5°C
Luchtvochtigheid: 76%
Luchtdruk: 1019 hPa
Bewolking: Helder
Zicht: 10 km
2020/04/05 09:25 EHPG 050925Z AUTO 12020KT 9999 NCD 09/05 Q1019
EHWO - Vliegveld Woensdrecht
Afstand tot weerstation: ZZO 65 km
Update: 05-04-2020 11:55
Helder
Helder
 Wind van OZO
Wind: OZO 17 km/h
Temperatuur: 17°C
Dauwpunt: 2°C
Luchtvochtigheid: 37%
Luchtdruk: 1019 hPa
Bewolking: Helder
Zicht: 10 km
2020/04/05 09:55 EHWO 050955Z AUTO 11009KT 070V160 9999 NCD 17/02 Q1019 BLU
 
EHGR - Vliegveld Gilze-Rijen
Afstand tot weerstation: ZO 79 km
Update: 05-04-2020 11:55
Helder
Helder
 Wind van ZO
Wind: ZO 20 km/h
Temperatuur: 17°C
Dauwpunt: 1°C
Luchtvochtigheid: 34%
Luchtdruk: 1020 hPa
Bewolking: Helder
Zicht: 10 km
2020/04/05 09:55 EHGR 050955Z AUTO 14011KT 100V180 9999 NCD 17/01 Q1020 BLU
EHQE - Hoorn-A Sea (Platform ter hoogte van Noord Holland)
Afstand tot weerstation: N 103 km
Update: 05-04-2020 11:25
Helder
Helder
 Wind van O
Wind: O 41 km/h
Temperatuur: 9°C
Gevoelstemperatuur: 4°C
Dauwpunt: 4°C
Luchtvochtigheid: 71%
Luchtdruk: 1020 hPa
Bewolking: Helder
Zicht: 10 km
2020/04/05 09:25 EHQE 050925Z AUTO 09022KT 9999 NCD 09/04 Q1020
 
EHKD - Marinebasis De Kooy (Den Helder)
Afstand tot weerstation: NNO 114 km
Update: 05-04-2020 11:55
Helder
Helder
 Wind van ZO
Wind: ZO 22 km/h
Temperatuur: 14°C
Dauwpunt: 3°C
Luchtvochtigheid: 48%
Luchtdruk: 1021 hPa
Bewolking: Helder
Zicht: 10 km
2020/04/05 09:55 EHKD 050955Z AUTO 14012KT 100V170 9999 NCD 14/03 Q1021 BLU
EHEH - Vliegveld Eindhoven
Afstand tot weerstation: OZO 115 km
Update: 05-04-2020 11:55
Helder
Helder
 Wind van ZO
Wind: ZO 19 km/h
Temperatuur: 17°C
Dauwpunt: 2°C
Luchtvochtigheid: 37%
Luchtdruk: 1021 hPa
Bewolking: Helder
Zicht: 10 km
2020/04/05 09:55 EHEH 050955Z AUTO 14010KT 090V190 9999 NCD 17/02 Q1021 BLU 14010G22KT CAVOK
 
EHVK - Vliegveld Volkel
Afstand tot weerstation: OZO 124 km
Update: 05-04-2020 11:55
Helder
Helder
 Wind van ZO
Wind: ZO 30 km/h
Temperatuur: 16°C
Dauwpunt: 0°C
Luchtvochtigheid: 34%
Luchtdruk: 1021 hPa
Bewolking: Helder
Zicht: 10 km
2020/04/05 09:55 EHVK 050955Z AUTO 14016KT 110V180 9999 NCD 16/00 Q1021 BLU
EHDL - Vliegveld Deelen
Afstand tot weerstation: O 128 km
Update: 05-04-2020 11:55
Helder
Helder
 Wind van ZO
Wind: ZO 28 km/h
Temperatuur: 16°C
Dauwpunt: 2°C
Luchtvochtigheid: 39%
Luchtdruk: 1022 hPa
Bewolking: Helder
Zicht: 10 km
2020/04/05 09:55 EHDL 050955Z AUTO 14015KT 080V210 9999 NCD 16/02 Q1022 BLU